FABL/BFN METAR and TAF weather

Enter ICAO airport designator
Station Type Date Time Source
FABL METAR 2019/02/23 03:00 UTC NOAA

FABL 230300Z 04008KT CAVOK 16/14 Q1017 NOSIG


Station Type Date Time Source
FABL Decoded METAR 2019/02/23 03:00 UTC NOAA

Bloemfontein, Bloemfontein Airport, South Africa (FABL) 29-06S 026-18E 1400M
Feb 22, 2019 - 10:00 PM EST / 2019.02.23 0300 UTC
Wind: from the NE (040 degrees) at 9 MPH (8 KT):0
Visibility: greater than 7 mile(s):0
Temperature: 60 F (16 C)
Dew Point: 57 F (14 C)
Relative Humidity: 87%
Pressure (altimeter): 30.03 in. Hg (1017 hPa)
ob: FABL 230300Z 04008KT CAVOK 16/14 Q1017 NOSIG
cycle: 3

Station Type Date Time Source
FABL TAF 2019/02/22 18:03 UTC NOAA

TAF TAF FABL 221600Z 2218/2318 34010KT CAVOK TX34/2313Z TN17/2304Z
BECMG 2301/2303 02010KT
BECMG 2310/2312 27010KT


Example: see airport list